sensor_id;sensor_type;location;lat;lon;timestamp;P1;durP1;ratioP1;P2;durP2;ratioP2
11646;SDS011;5880;52.342;9.662;2024-02-16T00:00:23;2.20;;;2.00;;
11646;SDS011;5880;52.342;9.662;2024-02-16T00:02:50;2.63;;;2.00;;
11646;SDS011;5880;52.342;9.662;2024-02-16T00:05:17;2.88;;;2.05;;
11646;SDS011;5880;52.342;9.662;2024-02-16T00:07:43;2.15;;;1.95;;
11646;SDS011;5880;52.342;9.662;2024-02-16T00:10:09;4.28;;;2.30;;
11646;SDS011;5880;52.342;9.662;2024-02-16T00:12:37;2.13;;;1.90;;
11646;SDS011;5880;52.342;9.662;2024-02-16T00:15:05;3.78;;;2.13;;
11646;SDS011;5880;52.342;9.662;2024-02-16T00:17:31;1.98;;;1.80;;
11646;SDS011;5880;52.342;9.662;2024-02-16T00:19:58;2.30;;;2.05;;
11646;SDS011;5880;52.342;9.662;2024-02-16T00:22:24;2.42;;;1.75;;
11646;SDS011;5880;52.342;9.662;2024-02-16T00:24:50;3.58;;;2.22;;
11646;SDS011;5880;52.342;9.662;2024-02-16T00:27:16;2.58;;;1.75;;
11646;SDS011;5880;52.342;9.662;2024-02-16T00:29:42;2.47;;;2.17;;
11646;SDS011;5880;52.342;9.662;2024-02-16T00:32:08;2.13;;;1.80;;
11646;SDS011;5880;52.342;9.662;2024-02-16T00:34:37;2.13;;;1.73;;
11646;SDS011;5880;52.342;9.662;2024-02-16T00:37:04;3.28;;;1.70;;
11646;SDS011;5880;52.342;9.662;2024-02-16T00:39:34;3.25;;;1.95;;
11646;SDS011;5880;52.342;9.662;2024-02-16T00:42:01;2.70;;;2.00;;
11646;SDS011;5880;52.342;9.662;2024-02-16T00:44:27;2.78;;;1.88;;
11646;SDS011;5880;52.342;9.662;2024-02-16T00:46:52;2.30;;;1.90;;
11646;SDS011;5880;52.342;9.662;2024-02-16T00:49:18;1.98;;;1.73;;
11646;SDS011;5880;52.342;9.662;2024-02-16T00:51:44;2.00;;;1.80;;
11646;SDS011;5880;52.342;9.662;2024-02-16T00:54:10;2.55;;;1.90;;
11646;SDS011;5880;52.342;9.662;2024-02-16T00:56:35;3.15;;;1.90;;
11646;SDS011;5880;52.342;9.662;2024-02-16T00:59:03;2.85;;;1.90;;
11646;SDS011;5880;52.342;9.662;2024-02-16T01:01:30;3.05;;;2.03;;
11646;SDS011;5880;52.342;9.662;2024-02-16T01:03:56;2.38;;;1.95;;
11646;SDS011;5880;52.342;9.662;2024-02-16T01:06:21;3.72;;;1.88;;
11646;SDS011;5880;52.342;9.662;2024-02-16T01:08:47;5.00;;;2.00;;
11646;SDS011;5880;52.342;9.662;2024-02-16T01:11:13;2.88;;;2.28;;
11646;SDS011;5880;52.342;9.662;2024-02-16T01:13:39;1.77;;;1.65;;
11646;SDS011;5880;52.342;9.662;2024-02-16T01:16:07;1.77;;;1.67;;
11646;SDS011;5880;52.342;9.662;2024-02-16T01:18:34;2.63;;;1.70;;
11646;SDS011;5880;52.342;9.662;2024-02-16T01:21:02;2.13;;;1.67;;
11646;SDS011;5880;52.342;9.662;2024-02-16T01:23:29;2.25;;;1.83;;
11646;SDS011;5880;52.342;9.662;2024-02-16T01:25:55;3.10;;;1.73;;
11646;SDS011;5880;52.342;9.662;2024-02-16T01:28:20;2.05;;;1.80;;
11646;SDS011;5880;52.342;9.662;2024-02-16T01:30:48;3.45;;;1.92;;
11646;SDS011;5880;52.342;9.662;2024-02-16T01:33:14;2.53;;;1.75;;
11646;SDS011;5880;52.342;9.662;2024-02-16T01:35:40;2.25;;;1.77;;
11646;SDS011;5880;52.342;9.662;2024-02-16T01:38:06;2.33;;;2.13;;
11646;SDS011;5880;52.342;9.662;2024-02-16T01:40:32;1.92;;;1.60;;
11646;SDS011;5880;52.342;9.662;2024-02-16T01:42:57;1.77;;;1.67;;
11646;SDS011;5880;52.342;9.662;2024-02-16T01:45:23;2.58;;;2.00;;
11646;SDS011;5880;52.342;9.662;2024-02-16T01:47:49;1.88;;;1.73;;
11646;SDS011;5880;52.342;9.662;2024-02-16T01:50:17;3.30;;;2.00;;
11646;SDS011;5880;52.342;9.662;2024-02-16T01:52:44;3.00;;;1.85;;
11646;SDS011;5880;52.342;9.662;2024-02-16T01:55:11;2.60;;;1.90;;
11646;SDS011;5880;52.342;9.662;2024-02-16T01:57:45;1.95;;;1.80;;
11646;SDS011;5880;52.342;9.662;2024-02-16T02:00:13;2.50;;;1.98;;
11646;SDS011;5880;52.342;9.662;2024-02-16T02:02:40;2.75;;;2.05;;
11646;SDS011;5880;52.342;9.662;2024-02-16T02:05:09;1.67;;;1.50;;
11646;SDS011;5880;52.342;9.662;2024-02-16T02:07:36;3.08;;;2.00;;
11646;SDS011;5880;52.342;9.662;2024-02-16T02:10:02;2.58;;;1.80;;
11646;SDS011;5880;52.342;9.662;2024-02-16T02:12:28;2.00;;;1.80;;
11646;SDS011;5880;52.342;9.662;2024-02-16T02:14:54;2.95;;;1.60;;
11646;SDS011;5880;52.342;9.662;2024-02-16T02:17:19;2.47;;;1.90;;
11646;SDS011;5880;52.342;9.662;2024-02-16T02:19:45;2.55;;;1.65;;
11646;SDS011;5880;52.342;9.662;2024-02-16T02:22:20;1.80;;;1.70;;
11646;SDS011;5880;52.342;9.662;2024-02-16T02:24:46;1.92;;;1.70;;
11646;SDS011;5880;52.342;9.662;2024-02-16T02:27:16;2.30;;;1.80;;
11646;SDS011;5880;52.342;9.662;2024-02-16T02:29:42;1.60;;;1.30;;
11646;SDS011;5880;52.342;9.662;2024-02-16T02:32:08;2.53;;;1.60;;
11646;SDS011;5880;52.342;9.662;2024-02-16T02:34:34;2.67;;;1.70;;
11646;SDS011;5880;52.342;9.662;2024-02-16T02:37:01;2.67;;;1.75;;
11646;SDS011;5880;52.342;9.662;2024-02-16T02:39:29;1.80;;;1.60;;
11646;SDS011;5880;52.342;9.662;2024-02-16T02:41:55;2.15;;;1.40;;
11646;SDS011;5880;52.342;9.662;2024-02-16T02:44:20;1.40;;;1.30;;
11646;SDS011;5880;52.342;9.662;2024-02-16T02:46:46;1.67;;;1.42;;
11646;SDS011;5880;52.342;9.662;2024-02-16T02:49:12;1.88;;;1.30;;
11646;SDS011;5880;52.342;9.662;2024-02-16T02:51:37;2.78;;;1.70;;
11646;SDS011;5880;52.342;9.662;2024-02-16T02:54:03;2.33;;;1.60;;
11646;SDS011;5880;52.342;9.662;2024-02-16T02:56:29;1.98;;;1.52;;
11646;SDS011;5880;52.342;9.662;2024-02-16T02:58:55;2.08;;;1.80;;
11646;SDS011;5880;52.342;9.662;2024-02-16T03:01:20;3.60;;;1.30;;
11646;SDS011;5880;52.342;9.662;2024-02-16T03:03:47;2.55;;;2.03;;
11646;SDS011;5880;52.342;9.662;2024-02-16T03:06:16;3.78;;;2.03;;
11646;SDS011;5880;52.342;9.662;2024-02-16T03:08:45;1.73;;;1.50;;
11646;SDS011;5880;52.342;9.662;2024-02-16T03:11:12;1.60;;;1.38;;
11646;SDS011;5880;52.342;9.662;2024-02-16T03:13:37;1.60;;;1.40;;
11646;SDS011;5880;52.342;9.662;2024-02-16T03:16:03;1.65;;;1.55;;
11646;SDS011;5880;52.342;9.662;2024-02-16T03:18:29;1.75;;;1.30;;
11646;SDS011;5880;52.342;9.662;2024-02-16T03:20:56;1.58;;;1.30;;
11646;SDS011;5880;52.342;9.662;2024-02-16T03:23:22;1.63;;;1.45;;
11646;SDS011;5880;52.342;9.662;2024-02-16T03:25:48;1.33;;;1.23;;
11646;SDS011;5880;52.342;9.662;2024-02-16T03:28:14;1.23;;;1.13;;
11646;SDS011;5880;52.342;9.662;2024-02-16T03:30:40;1.83;;;1.40;;
11646;SDS011;5880;52.342;9.662;2024-02-16T03:33:07;2.53;;;1.77;;
11646;SDS011;5880;52.342;9.662;2024-02-16T03:35:33;2.63;;;1.58;;
11646;SDS011;5880;52.342;9.662;2024-02-16T03:38:00;3.75;;;2.63;;
11646;SDS011;5880;52.342;9.662;2024-02-16T03:40:26;3.17;;;2.75;;
11646;SDS011;5880;52.342;9.662;2024-02-16T03:42:53;1.85;;;1.75;;
11646;SDS011;5880;52.342;9.662;2024-02-16T03:45:23;3.15;;;2.05;;
11646;SDS011;5880;52.342;9.662;2024-02-16T03:47:49;2.42;;;1.60;;
11646;SDS011;5880;52.342;9.662;2024-02-16T03:50:17;1.90;;;1.60;;
11646;SDS011;5880;52.342;9.662;2024-02-16T03:52:44;1.63;;;1.52;;
11646;SDS011;5880;52.342;9.662;2024-02-16T03:55:10;1.70;;;1.60;;
11646;SDS011;5880;52.342;9.662;2024-02-16T03:57:37;3.22;;;1.40;;
11646;SDS011;5880;52.342;9.662;2024-02-16T04:00:04;1.60;;;1.50;;
11646;SDS011;5880;52.342;9.662;2024-02-16T04:02:31;3.55;;;1.50;;
11646;SDS011;5880;52.342;9.662;2024-02-16T04:04:57;2.00;;;1.50;;
11646;SDS011;5880;52.342;9.662;2024-02-16T04:07:22;3.80;;;1.90;;
11646;SDS011;5880;52.342;9.662;2024-02-16T04:09:48;1.92;;;1.48;;
11646;SDS011;5880;52.342;9.662;2024-02-16T04:12:14;1.52;;;1.30;;
11646;SDS011;5880;52.342;9.662;2024-02-16T04:14:41;1.60;;;1.50;;
11646;SDS011;5880;52.342;9.662;2024-02-16T04:17:08;1.65;;;1.48;;
11646;SDS011;5880;52.342;9.662;2024-02-16T04:19:34;1.95;;;1.55;;
11646;SDS011;5880;52.342;9.662;2024-02-16T04:22:02;1.83;;;1.35;;
11646;SDS011;5880;52.342;9.662;2024-02-16T04:24:28;2.05;;;1.48;;
11646;SDS011;5880;52.342;9.662;2024-02-16T04:26:54;1.60;;;1.50;;
11646;SDS011;5880;52.342;9.662;2024-02-16T04:29:20;1.95;;;1.30;;
11646;SDS011;5880;52.342;9.662;2024-02-16T04:31:46;1.52;;;1.40;;
11646;SDS011;5880;52.342;9.662;2024-02-16T04:34:11;1.98;;;1.58;;
11646;SDS011;5880;52.342;9.662;2024-02-16T04:36:38;2.78;;;1.50;;
11646;SDS011;5880;52.342;9.662;2024-02-16T04:39:04;2.42;;;1.50;;
11646;SDS011;5880;52.342;9.662;2024-02-16T04:41:30;2.25;;;1.80;;
11646;SDS011;5880;52.342;9.662;2024-02-16T04:43:55;3.20;;;1.52;;
11646;SDS011;5880;52.342;9.662;2024-02-16T04:46:21;3.67;;;1.60;;
11646;SDS011;5880;52.342;9.662;2024-02-16T04:48:49;1.92;;;1.40;;
11646;SDS011;5880;52.342;9.662;2024-02-16T04:51:15;1.42;;;1.33;;
11646;SDS011;5880;52.342;9.662;2024-02-16T04:53:41;1.90;;;1.77;;
11646;SDS011;5880;52.342;9.662;2024-02-16T04:56:06;2.08;;;1.45;;
11646;SDS011;5880;52.342;9.662;2024-02-16T04:58:32;2.40;;;1.30;;
11646;SDS011;5880;52.342;9.662;2024-02-16T05:00:58;1.83;;;1.50;;
11646;SDS011;5880;52.342;9.662;2024-02-16T05:03:24;1.92;;;1.52;;
11646;SDS011;5880;52.342;9.662;2024-02-16T05:05:50;1.60;;;1.50;;
11646;SDS011;5880;52.342;9.662;2024-02-16T05:08:17;2.03;;;1.55;;
11646;SDS011;5880;52.342;9.662;2024-02-16T05:10:43;1.42;;;1.33;;
11646;SDS011;5880;52.342;9.662;2024-02-16T05:13:08;2.50;;;1.60;;
11646;SDS011;5880;52.342;9.662;2024-02-16T05:15:34;2.13;;;1.70;;
11646;SDS011;5880;52.342;9.662;2024-02-16T05:18:00;2.40;;;1.70;;
11646;SDS011;5880;52.342;9.662;2024-02-16T05:20:26;1.83;;;1.45;;
11646;SDS011;5880;52.342;9.662;2024-02-16T05:22:51;3.15;;;1.60;;
11646;SDS011;5880;52.342;9.662;2024-02-16T05:25:17;2.55;;;1.40;;
11646;SDS011;5880;52.342;9.662;2024-02-16T05:27:44;3.47;;;1.70;;
11646;SDS011;5880;52.342;9.662;2024-02-16T05:30:11;2.72;;;1.40;;
11646;SDS011;5880;52.342;9.662;2024-02-16T05:32:40;2.30;;;1.50;;
11646;SDS011;5880;52.342;9.662;2024-02-16T05:35:07;2.17;;;1.45;;
11646;SDS011;5880;52.342;9.662;2024-02-16T05:37:38;1.42;;;1.30;;
11646;SDS011;5880;52.342;9.662;2024-02-16T05:40:09;1.75;;;1.35;;
11646;SDS011;5880;52.342;9.662;2024-02-16T05:42:52;1.42;;;1.33;;
11646;SDS011;5880;52.342;9.662;2024-02-16T05:45:19;2.75;;;1.40;;
11646;SDS011;5880;52.342;9.662;2024-02-16T05:47:48;2.10;;;1.33;;
11646;SDS011;5880;52.342;9.662;2024-02-16T05:50:15;2.28;;;1.40;;
11646;SDS011;5880;52.342;9.662;2024-02-16T05:52:42;2.13;;;1.50;;
11646;SDS011;5880;52.342;9.662;2024-02-16T05:55:09;2.45;;;1.30;;
11646;SDS011;5880;52.342;9.662;2024-02-16T05:57:36;1.70;;;1.50;;
11646;SDS011;5880;52.342;9.662;2024-02-16T06:00:03;1.90;;;1.40;;
11646;SDS011;5880;52.342;9.662;2024-02-16T06:02:31;2.13;;;1.88;;
11646;SDS011;5880;52.342;9.662;2024-02-16T06:04:58;2.03;;;1.50;;
11646;SDS011;5880;52.342;9.662;2024-02-16T06:07:24;2.03;;;1.70;;
11646;SDS011;5880;52.342;9.662;2024-02-16T06:09:50;2.03;;;1.50;;
11646;SDS011;5880;52.342;9.662;2024-02-16T06:12:16;2.10;;;1.75;;
11646;SDS011;5880;52.342;9.662;2024-02-16T06:14:42;1.90;;;1.70;;
11646;SDS011;5880;52.342;9.662;2024-02-16T06:17:08;1.90;;;1.70;;
11646;SDS011;5880;52.342;9.662;2024-02-16T06:19:34;2.03;;;1.73;;
11646;SDS011;5880;52.342;9.662;2024-02-16T06:22:02;2.38;;;1.73;;
11646;SDS011;5880;52.342;9.662;2024-02-16T06:24:28;2.72;;;1.80;;
11646;SDS011;5880;52.342;9.662;2024-02-16T06:26:54;2.95;;;1.50;;
11646;SDS011;5880;52.342;9.662;2024-02-16T06:29:20;2.42;;;1.63;;
11646;SDS011;5880;52.342;9.662;2024-02-16T06:31:46;2.50;;;1.85;;
11646;SDS011;5880;52.342;9.662;2024-02-16T06:34:15;3.35;;;1.63;;
11646;SDS011;5880;52.342;9.662;2024-02-16T06:36:41;1.88;;;1.67;;
11646;SDS011;5880;52.342;9.662;2024-02-16T06:39:07;1.70;;;1.60;;
11646;SDS011;5880;52.342;9.662;2024-02-16T06:41:35;1.90;;;1.60;;
11646;SDS011;5880;52.342;9.662;2024-02-16T06:44:02;1.60;;;1.42;;
11646;SDS011;5880;52.342;9.662;2024-02-16T06:46:28;2.17;;;1.63;;
11646;SDS011;5880;52.342;9.662;2024-02-16T06:48:54;2.07;;;1.73;;
11646;SDS011;5880;52.342;9.662;2024-02-16T06:51:22;1.90;;;1.70;;
11646;SDS011;5880;52.342;9.662;2024-02-16T06:53:49;1.65;;;1.50;;
11646;SDS011;5880;52.342;9.662;2024-02-16T06:56:15;2.47;;;1.60;;
11646;SDS011;5880;52.342;9.662;2024-02-16T06:58:40;1.90;;;1.65;;
11646;SDS011;5880;52.342;9.662;2024-02-16T07:01:06;2.83;;;1.70;;
11646;SDS011;5880;52.342;9.662;2024-02-16T07:03:33;2.70;;;1.60;;
11646;SDS011;5880;52.342;9.662;2024-02-16T07:06:01;2.60;;;1.98;;
11646;SDS011;5880;52.342;9.662;2024-02-16T07:08:28;2.47;;;1.90;;
11646;SDS011;5880;52.342;9.662;2024-02-16T07:10:54;1.70;;;1.60;;
11646;SDS011;5880;52.342;9.662;2024-02-16T07:13:21;2.25;;;1.90;;
11646;SDS011;5880;52.342;9.662;2024-02-16T07:15:47;3.17;;;1.90;;
11646;SDS011;5880;52.342;9.662;2024-02-16T07:18:13;3.53;;;1.67;;
11646;SDS011;5880;52.342;9.662;2024-02-16T07:20:40;2.90;;;1.70;;
11646;SDS011;5880;52.342;9.662;2024-02-16T07:23:06;1.90;;;1.65;;
11646;SDS011;5880;52.342;9.662;2024-02-16T07:25:31;2.72;;;1.67;;
11646;SDS011;5880;52.342;9.662;2024-02-16T07:27:57;2.15;;;1.67;;
11646;SDS011;5880;52.342;9.662;2024-02-16T07:30:23;2.20;;;1.70;;
11646;SDS011;5880;52.342;9.662;2024-02-16T07:32:49;1.95;;;1.60;;
11646;SDS011;5880;52.342;9.662;2024-02-16T07:35:18;1.73;;;1.60;;
11646;SDS011;5880;52.342;9.662;2024-02-16T07:37:44;2.03;;;1.50;;
11646;SDS011;5880;52.342;9.662;2024-02-16T07:40:10;1.73;;;1.50;;
11646;SDS011;5880;52.342;9.662;2024-02-16T07:42:39;2.90;;;1.80;;
11646;SDS011;5880;52.342;9.662;2024-02-16T07:45:07;1.67;;;1.58;;
11646;SDS011;5880;52.342;9.662;2024-02-16T07:47:34;3.25;;;2.00;;
11646;SDS011;5880;52.342;9.662;2024-02-16T07:50:00;4.20;;;2.58;;
11646;SDS011;5880;52.342;9.662;2024-02-16T07:52:31;3.35;;;3.05;;
11646;SDS011;5880;52.342;9.662;2024-02-16T07:54:57;3.75;;;3.00;;
11646;SDS011;5880;52.342;9.662;2024-02-16T07:57:23;3.92;;;3.08;;
11646;SDS011;5880;52.342;9.662;2024-02-16T07:59:49;3.67;;;2.40;;
11646;SDS011;5880;52.342;9.662;2024-02-16T08:02:14;2.20;;;1.98;;
11646;SDS011;5880;52.342;9.662;2024-02-16T08:04:42;3.47;;;2.00;;
11646;SDS011;5880;52.342;9.662;2024-02-16T08:07:07;2.50;;;1.90;;
11646;SDS011;5880;52.342;9.662;2024-02-16T08:09:34;1.98;;;1.80;;
11646;SDS011;5880;52.342;9.662;2024-02-16T08:11:59;2.08;;;1.50;;
11646;SDS011;5880;52.342;9.662;2024-02-16T08:14:30;1.67;;;1.50;;
11646;SDS011;5880;52.342;9.662;2024-02-16T08:16:57;4.07;;;1.75;;
11646;SDS011;5880;52.342;9.662;2024-02-16T08:19:23;2.05;;;1.60;;
11646;SDS011;5880;52.342;9.662;2024-02-16T08:21:56;2.78;;;1.70;;
11646;SDS011;5880;52.342;9.662;2024-02-16T08:24:21;2.10;;;1.90;;
11646;SDS011;5880;52.342;9.662;2024-02-16T08:26:47;1.70;;;1.60;;
11646;SDS011;5880;52.342;9.662;2024-02-16T08:29:13;3.03;;;1.60;;
11646;SDS011;5880;52.342;9.662;2024-02-16T08:31:38;2.25;;;1.50;;
11646;SDS011;5880;52.342;9.662;2024-02-16T08:34:04;1.58;;;1.48;;
11646;SDS011;5880;52.342;9.662;2024-02-16T08:36:32;1.92;;;1.50;;
11646;SDS011;5880;52.342;9.662;2024-02-16T08:38:59;2.20;;;1.83;;
11646;SDS011;5880;52.342;9.662;2024-02-16T08:41:24;1.73;;;1.50;;
11646;SDS011;5880;52.342;9.662;2024-02-16T08:43:50;1.90;;;1.63;;
11646;SDS011;5880;52.342;9.662;2024-02-16T08:46:16;1.67;;;1.58;;
11646;SDS011;5880;52.342;9.662;2024-02-16T08:48:43;3.78;;;2.13;;
11646;SDS011;5880;52.342;9.662;2024-02-16T08:51:10;2.97;;;1.80;;
11646;SDS011;5880;52.342;9.662;2024-02-16T08:53:36;1.45;;;1.35;;
11646;SDS011;5880;52.342;9.662;2024-02-16T08:56:01;2.10;;;1.67;;
11646;SDS011;5880;52.342;9.662;2024-02-16T08:58:27;1.75;;;1.65;;
11646;SDS011;5880;52.342;9.662;2024-02-16T09:00:53;2.15;;;1.58;;
11646;SDS011;5880;52.342;9.662;2024-02-16T09:03:19;2.78;;;1.48;;
11646;SDS011;5880;52.342;9.662;2024-02-16T09:05:47;1.80;;;1.60;;
11646;SDS011;5880;52.342;9.662;2024-02-16T09:08:13;1.67;;;1.35;;
11646;SDS011;5880;52.342;9.662;2024-02-16T09:10:39;2.03;;;1.80;;
11646;SDS011;5880;52.342;9.662;2024-02-16T09:13:04;1.50;;;1.40;;
11646;SDS011;5880;52.342;9.662;2024-02-16T09:15:30;2.65;;;1.58;;
11646;SDS011;5880;52.342;9.662;2024-02-16T09:17:55;2.00;;;1.60;;
11646;SDS011;5880;52.342;9.662;2024-02-16T09:20:21;1.65;;;1.55;;
11646;SDS011;5880;52.342;9.662;2024-02-16T09:22:47;1.63;;;1.38;;
11646;SDS011;5880;52.342;9.662;2024-02-16T09:25:13;1.63;;;1.52;;
11646;SDS011;5880;52.342;9.662;2024-02-16T09:27:40;2.08;;;1.50;;
11646;SDS011;5880;52.342;9.662;2024-02-16T09:30:09;2.00;;;1.60;;
11646;SDS011;5880;52.342;9.662;2024-02-16T09:32:40;2.08;;;1.60;;
11646;SDS011;5880;52.342;9.662;2024-02-16T09:35:07;2.15;;;1.30;;
11646;SDS011;5880;52.342;9.662;2024-02-16T09:37:34;1.70;;;1.60;;
11646;SDS011;5880;52.342;9.662;2024-02-16T09:40:02;2.00;;;1.77;;
11646;SDS011;5880;52.342;9.662;2024-02-16T09:42:28;1.85;;;1.55;;
11646;SDS011;5880;52.342;9.662;2024-02-16T09:44:54;2.00;;;1.50;;
11646;SDS011;5880;52.342;9.662;2024-02-16T09:47:20;2.58;;;1.75;;
11646;SDS011;5880;52.342;9.662;2024-02-16T09:49:48;2.17;;;1.73;;
11646;SDS011;5880;52.342;9.662;2024-02-16T09:52:14;2.25;;;1.70;;
11646;SDS011;5880;52.342;9.662;2024-02-16T09:54:39;2.80;;;1.70;;
11646;SDS011;5880;52.342;9.662;2024-02-16T09:57:05;2.63;;;1.58;;
11646;SDS011;5880;52.342;9.662;2024-02-16T09:59:31;2.10;;;1.70;;
11646;SDS011;5880;52.342;9.662;2024-02-16T10:02:03;3.10;;;1.70;;
11646;SDS011;5880;52.342;9.662;2024-02-16T10:04:32;1.60;;;1.50;;
11646;SDS011;5880;52.342;9.662;2024-02-16T10:06:58;1.92;;;1.75;;
11646;SDS011;5880;52.342;9.662;2024-02-16T10:09:24;1.92;;;1.67;;
11646;SDS011;5880;52.342;9.662;2024-02-16T10:11:51;2.45;;;1.60;;
11646;SDS011;5880;52.342;9.662;2024-02-16T10:14:17;2.15;;;1.80;;
11646;SDS011;5880;52.342;9.662;2024-02-16T10:16:47;2.17;;;1.83;;
11646;SDS011;5880;52.342;9.662;2024-02-16T10:19:13;2.58;;;1.80;;
11646;SDS011;5880;52.342;9.662;2024-02-16T10:21:42;1.80;;;1.70;;
11646;SDS011;5880;52.342;9.662;2024-02-16T10:24:09;3.85;;;1.98;;
11646;SDS011;5880;52.342;9.662;2024-02-16T10:26:39;2.20;;;1.58;;
11646;SDS011;5880;52.342;9.662;2024-02-16T10:29:07;2.47;;;1.83;;
11646;SDS011;5880;52.342;9.662;2024-02-16T10:31:36;2.15;;;1.63;;
11646;SDS011;5880;52.342;9.662;2024-02-16T10:34:03;2.20;;;1.80;;
11646;SDS011;5880;52.342;9.662;2024-02-16T10:36:32;2.08;;;1.73;;
11646;SDS011;5880;52.342;9.662;2024-02-16T10:38:59;2.72;;;1.75;;
11646;SDS011;5880;52.342;9.662;2024-02-16T10:41:29;2.42;;;1.70;;
11646;SDS011;5880;52.342;9.662;2024-02-16T10:44:03;1.90;;;1.70;;
11646;SDS011;5880;52.342;9.662;2024-02-16T10:46:30;1.83;;;1.70;;
11646;SDS011;5880;52.342;9.662;2024-02-16T10:48:57;3.20;;;2.00;;
11646;SDS011;5880;52.342;9.662;2024-02-16T10:51:27;2.10;;;1.90;;
11646;SDS011;5880;52.342;9.662;2024-02-16T10:53:59;2.25;;;1.90;;
11646;SDS011;5880;52.342;9.662;2024-02-16T10:56:27;1.65;;;1.52;;
11646;SDS011;5880;52.342;9.662;2024-02-16T10:58:59;2.88;;;1.88;;
11646;SDS011;5880;52.342;9.662;2024-02-16T11:01:27;2.08;;;1.60;;
11646;SDS011;5880;52.342;9.662;2024-02-16T11:04:00;2.13;;;1.80;;
11646;SDS011;5880;52.342;9.662;2024-02-16T11:06:28;1.90;;;1.70;;
11646;SDS011;5880;52.342;9.662;2024-02-16T11:08:54;3.67;;;1.80;;
11646;SDS011;5880;52.342;9.662;2024-02-16T11:11:27;2.25;;;1.77;;
11646;SDS011;5880;52.342;9.662;2024-02-16T11:13:54;1.77;;;1.60;;
11646;SDS011;5880;52.342;9.662;2024-02-16T11:16:21;2.13;;;1.77;;
11646;SDS011;5880;52.342;9.662;2024-02-16T11:18:47;1.85;;;1.75;;
11646;SDS011;5880;52.342;9.662;2024-02-16T11:21:16;1.98;;;1.60;;
11646;SDS011;5880;52.342;9.662;2024-02-16T11:23:44;2.47;;;1.75;;
11646;SDS011;5880;52.342;9.662;2024-02-16T11:26:10;2.00;;;1.70;;
11646;SDS011;5880;52.342;9.662;2024-02-16T11:28:38;3.08;;;1.98;;
11646;SDS011;5880;52.342;9.662;2024-02-16T11:31:06;1.95;;;1.75;;
11646;SDS011;5880;52.342;9.662;2024-02-16T11:33:32;2.17;;;1.75;;
11646;SDS011;5880;52.342;9.662;2024-02-16T11:36:00;1.60;;;1.50;;
11646;SDS011;5880;52.342;9.662;2024-02-16T11:38:30;2.25;;;1.80;;
11646;SDS011;5880;52.342;9.662;2024-02-16T11:43:25;1.85;;;1.58;;
11646;SDS011;5880;52.342;9.662;2024-02-16T11:45:52;1.98;;;1.75;;
11646;SDS011;5880;52.342;9.662;2024-02-16T11:48:21;6.68;;;1.63;;
11646;SDS011;5880;52.342;9.662;2024-02-16T11:50:55;2.70;;;1.90;;
11646;SDS011;5880;52.342;9.662;2024-02-16T11:53:31;1.80;;;1.50;;
11646;SDS011;5880;52.342;9.662;2024-02-16T11:55:58;2.50;;;1.75;;
11646;SDS011;5880;52.342;9.662;2024-02-16T11:58:25;2.30;;;1.90;;
11646;SDS011;5880;52.342;9.662;2024-02-16T12:00:51;2.95;;;1.80;;
11646;SDS011;5880;52.342;9.662;2024-02-16T12:03:21;4.53;;;1.80;;
11646;SDS011;5880;52.342;9.662;2024-02-16T12:05:51;4.00;;;2.20;;
11646;SDS011;5880;52.342;9.662;2024-02-16T12:08:17;3.22;;;1.90;;
11646;SDS011;5880;52.342;9.662;2024-02-16T12:10:44;2.90;;;2.10;;
11646;SDS011;5880;52.342;9.662;2024-02-16T12:13:09;2.67;;;2.03;;
11646;SDS011;5880;52.342;9.662;2024-02-16T12:15:37;4.05;;;2.13;;
11646;SDS011;5880;52.342;9.662;2024-02-16T12:18:03;2.30;;;1.95;;
11646;SDS011;5880;52.342;9.662;2024-02-16T12:20:30;2.53;;;1.92;;
11646;SDS011;5880;52.342;9.662;2024-02-16T12:22:58;2.72;;;1.90;;
11646;SDS011;5880;52.342;9.662;2024-02-16T12:25:27;2.42;;;1.85;;
11646;SDS011;5880;52.342;9.662;2024-02-16T12:27:52;3.00;;;2.03;;
11646;SDS011;5880;52.342;9.662;2024-02-16T12:30:18;3.83;;;2.00;;
11646;SDS011;5880;52.342;9.662;2024-02-16T12:32:44;3.67;;;2.03;;
11646;SDS011;5880;52.342;9.662;2024-02-16T12:35:09;3.58;;;2.17;;
11646;SDS011;5880;52.342;9.662;2024-02-16T12:37:35;5.78;;;2.40;;
11646;SDS011;5880;52.342;9.662;2024-02-16T12:40:02;3.35;;;2.05;;
11646;SDS011;5880;52.342;9.662;2024-02-16T12:42:29;4.05;;;2.30;;
11646;SDS011;5880;52.342;9.662;2024-02-16T12:44:55;3.65;;;2.45;;
11646;SDS011;5880;52.342;9.662;2024-02-16T12:47:20;4.00;;;2.50;;
11646;SDS011;5880;52.342;9.662;2024-02-16T12:49:46;4.07;;;2.25;;
11646;SDS011;5880;52.342;9.662;2024-02-16T12:52:12;4.38;;;2.10;;
11646;SDS011;5880;52.342;9.662;2024-02-16T12:54:47;3.17;;;2.40;;
11646;SDS011;5880;52.342;9.662;2024-02-16T12:57:13;3.22;;;2.30;;
11646;SDS011;5880;52.342;9.662;2024-02-16T12:59:39;3.05;;;2.13;;
11646;SDS011;5880;52.342;9.662;2024-02-16T13:02:04;3.53;;;2.35;;
11646;SDS011;5880;52.342;9.662;2024-02-16T13:04:30;4.03;;;2.45;;
11646;SDS011;5880;52.342;9.662;2024-02-16T13:06:57;2.63;;;1.98;;
11646;SDS011;5880;52.342;9.662;2024-02-16T13:09:23;2.70;;;2.20;;
11646;SDS011;5880;52.342;9.662;2024-02-16T13:11:49;3.15;;;2.17;;
11646;SDS011;5880;52.342;9.662;2024-02-16T13:14:19;2.97;;;2.30;;
11646;SDS011;5880;52.342;9.662;2024-02-16T13:16:46;2.40;;;2.10;;
11646;SDS011;5880;52.342;9.662;2024-02-16T13:19:12;2.92;;;2.35;;
11646;SDS011;5880;52.342;9.662;2024-02-16T13:21:38;3.42;;;2.38;;
11646;SDS011;5880;52.342;9.662;2024-02-16T13:24:05;3.72;;;2.63;;
11646;SDS011;5880;52.342;9.662;2024-02-16T13:26:31;4.30;;;2.55;;
11646;SDS011;5880;52.342;9.662;2024-02-16T13:28:56;3.83;;;2.28;;
11646;SDS011;5880;52.342;9.662;2024-02-16T13:31:22;3.28;;;2.20;;
11646;SDS011;5880;52.342;9.662;2024-02-16T13:33:49;3.30;;;2.63;;
11646;SDS011;5880;52.342;9.662;2024-02-16T13:36:18;2.33;;;2.10;;
11646;SDS011;5880;52.342;9.662;2024-02-16T13:38:43;4.55;;;2.72;;
11646;SDS011;5880;52.342;9.662;2024-02-16T13:41:09;4.15;;;2.35;;
11646;SDS011;5880;52.342;9.662;2024-02-16T13:43:35;2.42;;;2.22;;
11646;SDS011;5880;52.342;9.662;2024-02-16T13:46:00;3.20;;;2.50;;
11646;SDS011;5880;52.342;9.662;2024-02-16T13:48:26;3.50;;;2.40;;
11646;SDS011;5880;52.342;9.662;2024-02-16T13:50:53;4.90;;;2.60;;
11646;SDS011;5880;52.342;9.662;2024-02-16T13:53:19;4.32;;;2.42;;
11646;SDS011;5880;52.342;9.662;2024-02-16T13:55:48;4.63;;;2.92;;
11646;SDS011;5880;52.342;9.662;2024-02-16T13:58:14;3.13;;;2.58;;
11646;SDS011;5880;52.342;9.662;2024-02-16T14:00:40;3.50;;;2.80;;
11646;SDS011;5880;52.342;9.662;2024-02-16T14:03:06;3.00;;;2.70;;
11646;SDS011;5880;52.342;9.662;2024-02-16T14:05:35;3.65;;;3.10;;
11646;SDS011;5880;52.342;9.662;2024-02-16T14:08:05;3.97;;;2.92;;
11646;SDS011;5880;52.342;9.662;2024-02-16T14:10:32;5.15;;;2.95;;
11646;SDS011;5880;52.342;9.662;2024-02-16T14:12:58;3.25;;;2.95;;
11646;SDS011;5880;52.342;9.662;2024-02-16T14:15:24;3.50;;;3.20;;
11646;SDS011;5880;52.342;9.662;2024-02-16T14:17:49;3.92;;;3.47;;
11646;SDS011;5880;52.342;9.662;2024-02-16T14:20:15;3.92;;;3.10;;
11646;SDS011;5880;52.342;9.662;2024-02-16T14:22:41;4.13;;;3.38;;
11646;SDS011;5880;52.342;9.662;2024-02-16T14:25:06;4.65;;;3.55;;
11646;SDS011;5880;52.342;9.662;2024-02-16T14:27:35;5.70;;;3.38;;
11646;SDS011;5880;52.342;9.662;2024-02-16T14:30:02;3.83;;;3.35;;
11646;SDS011;5880;52.342;9.662;2024-02-16T14:32:29;5.15;;;3.45;;
11646;SDS011;5880;52.342;9.662;2024-02-16T14:34:55;3.75;;;2.97;;
11646;SDS011;5880;52.342;9.662;2024-02-16T14:37:20;4.70;;;3.22;;
11646;SDS011;5880;52.342;9.662;2024-02-16T14:39:46;4.68;;;2.95;;
11646;SDS011;5880;52.342;9.662;2024-02-16T14:42:12;4.18;;;3.40;;
11646;SDS011;5880;52.342;9.662;2024-02-16T14:44:39;4.35;;;3.47;;
11646;SDS011;5880;52.342;9.662;2024-02-16T14:47:04;4.93;;;3.60;;
11646;SDS011;5880;52.342;9.662;2024-02-16T14:49:30;3.80;;;3.40;;
11646;SDS011;5880;52.342;9.662;2024-02-16T14:51:56;4.63;;;3.75;;
11646;SDS011;5880;52.342;9.662;2024-02-16T14:54:22;5.75;;;3.63;;
11646;SDS011;5880;52.342;9.662;2024-02-16T14:56:51;3.78;;;3.42;;
11646;SDS011;5880;52.342;9.662;2024-02-16T14:59:18;5.03;;;3.60;;